sensor_id;sensor_type;location;lat;lon;timestamp;pressure;altitude;pressure_sealevel;temperature;humidity
71043;BME280;58696;52.134;5.500;2023-03-05T00:01:21;102424.84;;;3.79;85.34
71043;BME280;58696;52.134;5.500;2023-03-05T00:03:49;102424.66;;;3.82;85.09
71043;BME280;58696;52.134;5.500;2023-03-05T00:06:18;102419.66;;;3.80;85.28
71043;BME280;58696;52.134;5.500;2023-03-05T00:08:44;102418.03;;;3.79;85.26
71043;BME280;58696;52.134;5.500;2023-03-05T00:11:11;102407.88;;;3.79;85.11
71043;BME280;58696;52.134;5.500;2023-03-05T00:13:38;102411.31;;;3.78;85.20
71043;BME280;58696;52.134;5.500;2023-03-05T00:16:06;102408.88;;;3.77;85.41
71043;BME280;58696;52.134;5.500;2023-03-05T00:18:34;102401.84;;;3.80;85.21
71043;BME280;58696;52.134;5.500;2023-03-05T00:21:01;102407.88;;;3.79;85.36
71043;BME280;58696;52.134;5.500;2023-03-05T00:23:27;102403.69;;;3.78;85.50
71043;BME280;58696;52.134;5.500;2023-03-05T00:25:56;102409.69;;;3.77;85.56
71043;BME280;58696;52.134;5.500;2023-03-05T00:28:25;102394.34;;;3.79;85.59
71043;BME280;58696;52.134;5.500;2023-03-05T00:30:52;102397.91;;;3.76;85.39
71043;BME280;58696;52.134;5.500;2023-03-05T00:33:18;102398.63;;;3.78;85.59
71043;BME280;58696;52.134;5.500;2023-03-05T00:35:45;102392.59;;;3.79;85.64
71043;BME280;58696;52.134;5.500;2023-03-05T00:38:11;102382.34;;;3.81;85.43
71043;BME280;58696;52.134;5.500;2023-03-05T00:40:40;102387.81;;;3.75;85.26
71043;BME280;58696;52.134;5.500;2023-03-05T00:43:07;102384.84;;;3.68;85.44
71043;BME280;58696;52.134;5.500;2023-03-05T00:45:34;102387.78;;;3.62;85.65
71043;BME280;58696;52.134;5.500;2023-03-05T00:48:04;102385.47;;;3.59;85.63
71043;BME280;58696;52.134;5.500;2023-03-05T00:50:30;102390.63;;;3.57;85.64
71043;BME280;58696;52.134;5.500;2023-03-05T00:52:59;102391.53;;;3.56;85.55
71043;BME280;58696;52.134;5.500;2023-03-05T00:55:31;102381.38;;;3.56;85.69
71043;BME280;58696;52.134;5.500;2023-03-05T00:57:58;102385.75;;;3.54;85.64
71043;BME280;58696;52.134;5.500;2023-03-05T01:00:27;102377.22;;;3.55;85.75
71043;BME280;58696;52.134;5.500;2023-03-05T01:02:55;102379.66;;;3.57;85.71
71043;BME280;58696;52.134;5.500;2023-03-05T01:05:26;102367.84;;;3.56;85.78
71043;BME280;58696;52.134;5.500;2023-03-05T01:07:54;102367.75;;;3.57;85.66
71043;BME280;58696;52.134;5.500;2023-03-05T01:10:26;102371.31;;;3.55;85.67
71043;BME280;58696;52.134;5.500;2023-03-05T01:12:53;102362.88;;;3.54;85.48
71043;BME280;58696;52.134;5.500;2023-03-05T01:15:23;102366.25;;;3.55;85.59
71043;BME280;58696;52.134;5.500;2023-03-05T01:17:50;102358.78;;;3.52;85.73
71043;BME280;58696;52.134;5.500;2023-03-05T01:20:21;102358.59;;;3.55;85.65
71043;BME280;58696;52.134;5.500;2023-03-05T01:22:50;102351.69;;;3.57;85.80
71043;BME280;58696;52.134;5.500;2023-03-05T01:25:16;102352.50;;;3.57;85.87
71043;BME280;58696;52.134;5.500;2023-03-05T01:27:45;102353.31;;;3.58;85.79
71043;BME280;58696;52.134;5.500;2023-03-05T01:30:13;102345.91;;;3.55;85.84
71043;BME280;58696;52.134;5.500;2023-03-05T01:32:40;102345.09;;;3.54;85.90
71043;BME280;58696;52.134;5.500;2023-03-05T01:35:07;102340.00;;;3.54;85.86
71043;BME280;58696;52.134;5.500;2023-03-05T01:37:34;102334.00;;;3.55;85.84
71043;BME280;58696;52.134;5.500;2023-03-05T01:40:03;102328.91;;;3.55;85.87
71043;BME280;58696;52.134;5.500;2023-03-05T01:42:34;102334.00;;;3.55;85.84
71043;BME280;58696;52.134;5.500;2023-03-05T01:47:27;102325.03;;;3.50;86.03
71043;BME280;58696;52.134;5.500;2023-03-05T01:49:54;102311.59;;;3.48;86.14
71043;BME280;58696;52.134;5.500;2023-03-05T01:52:24;102314.16;;;3.48;86.21
71043;BME280;58696;52.134;5.500;2023-03-05T01:54:58;102308.25;;;3.47;86.12
71043;BME280;58696;52.134;5.500;2023-03-05T01:57:37;102307.44;;;3.47;86.31
71043;BME280;58696;52.134;5.500;2023-03-05T02:00:11;102300.75;;;3.46;86.16
71043;BME280;58696;52.134;5.500;2023-03-05T02:02:43;102293.13;;;3.46;86.45
71043;BME280;58696;52.134;5.500;2023-03-05T02:05:11;102284.06;;;3.41;86.45
71043;BME280;58696;52.134;5.500;2023-03-05T02:07:38;102286.69;;;3.40;86.49
71043;BME280;58696;52.134;5.500;2023-03-05T02:10:15;102279.78;;;3.42;86.61
71043;BME280;58696;52.134;5.500;2023-03-05T02:12:41;102278.09;;;3.42;86.50
71043;BME280;58696;52.134;5.500;2023-03-05T02:15:08;102273.00;;;3.42;86.57
71043;BME280;58696;52.134;5.500;2023-03-05T02:17:35;102271.25;;;3.43;86.57
71043;BME280;58696;52.134;5.500;2023-03-05T02:20:06;102273.69;;;3.45;86.48
71043;BME280;58696;52.134;5.500;2023-03-05T02:22:33;102266.88;;;3.45;86.56
71043;BME280;58696;52.134;5.500;2023-03-05T02:25:09;102261.00;;;3.45;86.34
71043;BME280;58696;52.134;5.500;2023-03-05T02:27:39;102247.66;;;3.41;86.40
71043;BME280;58696;52.134;5.500;2023-03-05T02:30:10;102247.78;;;3.39;86.30
71043;BME280;58696;52.134;5.500;2023-03-05T02:32:40;102251.00;;;3.41;86.43
71043;BME280;58696;52.134;5.500;2023-03-05T02:35:09;102250.22;;;3.41;86.31
71043;BME280;58696;52.134;5.500;2023-03-05T02:37:35;102241.88;;;3.39;86.50
71043;BME280;58696;52.134;5.500;2023-03-05T02:40:02;102246.16;;;3.38;86.47
71043;BME280;58696;52.134;5.500;2023-03-05T02:42:28;102239.44;;;3.37;86.47
71043;BME280;58696;52.134;5.500;2023-03-05T02:45:01;102243.63;;;3.38;86.59
71043;BME280;58696;52.134;5.500;2023-03-05T02:47:28;102240.44;;;3.35;86.35
71043;BME280;58696;52.134;5.500;2023-03-05T02:49:54;102234.75;;;3.31;86.47
71043;BME280;58696;52.134;5.500;2023-03-05T02:52:24;102234.75;;;3.31;86.57
71043;BME280;58696;52.134;5.500;2023-03-05T02:54:53;102224.50;;;3.33;86.43
71043;BME280;58696;52.134;5.500;2023-03-05T02:57:20;102232.19;;;3.31;86.32
71043;BME280;58696;52.134;5.500;2023-03-05T02:59:46;102223.06;;;3.29;86.61
71043;BME280;58696;52.134;5.500;2023-03-05T03:02:14;102219.00;;;3.26;86.61
71043;BME280;58696;52.134;5.500;2023-03-05T03:04:45;102212.28;;;3.25;86.66
71043;BME280;58696;52.134;5.500;2023-03-05T03:07:14;102201.22;;;3.26;86.67
71043;BME280;58696;52.134;5.500;2023-03-05T03:09:41;102207.13;;;3.27;86.74
71043;BME280;58696;52.134;5.500;2023-03-05T03:12:10;102194.31;;;3.28;86.82
71043;BME280;58696;52.134;5.500;2023-03-05T03:14:40;102196.97;;;3.27;86.57
71043;BME280;58696;52.134;5.500;2023-03-05T03:17:10;102193.50;;;3.28;86.76
71043;BME280;58696;52.134;5.500;2023-03-05T03:19:37;102187.50;;;3.29;86.60
71043;BME280;58696;52.134;5.500;2023-03-05T03:22:04;102186.78;;;3.27;86.40
71043;BME280;58696;52.134;5.500;2023-03-05T03:24:31;102181.91;;;3.24;86.67
71043;BME280;58696;52.134;5.500;2023-03-05T03:26:58;102182.94;;;3.21;86.70
71043;BME280;58696;52.134;5.500;2023-03-05T03:29:27;102182.94;;;3.21;86.84
71043;BME280;58696;52.134;5.500;2023-03-05T03:31:56;102178.75;;;3.20;86.98
71043;BME280;58696;52.134;5.500;2023-03-05T03:34:24;102171.94;;;3.21;86.98
71043;BME280;58696;52.134;5.500;2023-03-05T03:36:52;102181.28;;;3.20;87.19
71043;BME280;58696;52.134;5.500;2023-03-05T03:39:18;102179.78;;;3.17;86.99
71043;BME280;58696;52.134;5.500;2023-03-05T03:41:49;102181.50;;;3.17;87.16
71043;BME280;58696;52.134;5.500;2023-03-05T03:44:20;102165.53;;;3.15;87.27
71043;BME280;58696;52.134;5.500;2023-03-05T03:46:47;102166.38;;;3.15;87.29
71043;BME280;58696;52.134;5.500;2023-03-05T03:49:20;102153.44;;;3.19;87.45
71043;BME280;58696;52.134;5.500;2023-03-05T03:51:49;102153.34;;;3.20;87.52
71043;BME280;58696;52.134;5.500;2023-03-05T03:54:17;102155.06;;;3.20;87.31
71043;BME280;58696;52.134;5.500;2023-03-05T03:56:44;102148.47;;;3.17;87.34
71043;BME280;58696;52.134;5.500;2023-03-05T03:59:11;102141.84;;;3.14;87.45
71043;BME280;58696;52.134;5.500;2023-03-05T04:01:46;102145.31;;;3.13;87.46
71043;BME280;58696;52.134;5.500;2023-03-05T04:04:13;102150.41;;;3.13;87.43
71043;BME280;58696;52.134;5.500;2023-03-05T04:06:39;102143.50;;;3.15;87.56
71043;BME280;58696;52.134;5.500;2023-03-05T04:09:17;102144.41;;;3.14;87.50
71043;BME280;58696;52.134;5.500;2023-03-05T04:11:46;102150.41;;;3.13;87.57
71043;BME280;58696;52.134;5.500;2023-03-05T04:14:16;102141.16;;;3.12;87.68
71043;BME280;58696;52.134;5.500;2023-03-05T04:16:44;102135.25;;;3.12;87.60
71043;BME280;58696;52.134;5.500;2023-03-05T04:19:13;102138.63;;;3.12;87.76
71043;BME280;58696;52.134;5.500;2023-03-05T04:21:39;102133.66;;;3.11;87.89
71043;BME280;58696;52.134;5.500;2023-03-05T04:24:06;102137.00;;;3.11;87.92
71043;BME280;58696;52.134;5.500;2023-03-05T04:26:36;102141.25;;;3.11;87.86
71043;BME280;58696;52.134;5.500;2023-03-05T04:29:03;102126.03;;;3.11;88.20
71043;BME280;58696;52.134;5.500;2023-03-05T04:31:30;102126.63;;;3.14;88.24
71043;BME280;58696;52.134;5.500;2023-03-05T04:33:59;102126.03;;;3.11;88.34
71043;BME280;58696;52.134;5.500;2023-03-05T04:36:26;102121.66;;;3.13;88.34
71043;BME280;58696;52.134;5.500;2023-03-05T04:38:52;102119.91;;;3.13;88.48
71043;BME280;58696;52.134;5.500;2023-03-05T04:41:19;102120.66;;;3.15;88.59
71043;BME280;58696;52.134;5.500;2023-03-05T04:43:46;102113.84;;;3.16;88.60
71043;BME280;58696;52.134;5.500;2023-03-05T04:46:13;102111.38;;;3.14;88.47
71043;BME280;58696;52.134;5.500;2023-03-05T04:48:39;102108.13;;;3.12;88.49
71043;BME280;58696;52.134;5.500;2023-03-05T04:51:06;102109.06;;;3.11;88.68
71043;BME280;58696;52.134;5.500;2023-03-05T04:53:35;102101.53;;;3.10;88.64
71043;BME280;58696;52.134;5.500;2023-03-05T04:56:01;102105.19;;;3.06;88.71
71043;BME280;58696;52.134;5.500;2023-03-05T04:58:28;102101.22;;;3.02;88.63
71043;BME280;58696;52.134;5.500;2023-03-05T05:01:01;102099.09;;;2.96;88.57
71043;BME280;58696;52.134;5.500;2023-03-05T05:03:28;102097.66;;;2.92;88.93
71043;BME280;58696;52.134;5.500;2023-03-05T05:05:55;102101.31;;;2.87;89.03
71043;BME280;58696;52.134;5.500;2023-03-05T05:08:22;102099.69;;;2.86;89.08
71043;BME280;58696;52.134;5.500;2023-03-05T05:11:04;102101.41;;;2.86;89.07
71043;BME280;58696;52.134;5.500;2023-03-05T05:13:31;102100.91;;;2.81;89.15
71043;BME280;58696;52.134;5.500;2023-03-05T05:15:58;102090.16;;;2.77;89.13
71043;BME280;58696;52.134;5.500;2023-03-05T05:18:24;102094.31;;;2.78;89.30
71043;BME280;58696;52.134;5.500;2023-03-05T05:20:51;102086.69;;;2.78;89.42
71043;BME280;58696;52.134;5.500;2023-03-05T05:23:18;102090.84;;;2.79;89.41
71043;BME280;58696;52.134;5.500;2023-03-05T05:25:54;102080.59;;;2.81;89.52
71043;BME280;58696;52.134;5.500;2023-03-05T05:28:20;102078.16;;;2.79;89.45
71043;BME280;58696;52.134;5.500;2023-03-05T05:30:51;102078.88;;;2.81;89.45
71043;BME280;58696;52.134;5.500;2023-03-05T05:33:22;102068.72;;;2.81;89.67
71043;BME280;58696;52.134;5.500;2023-03-05T05:35:49;102078.78;;;2.83;89.43
71043;BME280;58696;52.134;5.500;2023-03-05T05:38:17;102071.25;;;2.81;89.61
71043;BME280;58696;52.134;5.500;2023-03-05T05:40:48;102070.66;;;2.78;89.65
71043;BME280;58696;52.134;5.500;2023-03-05T05:43:17;102071.53;;;2.77;89.60
71043;BME280;58696;52.134;5.500;2023-03-05T05:45:43;102062.44;;;2.74;89.66
71043;BME280;58696;52.134;5.500;2023-03-05T05:48:12;102068.41;;;2.73;89.76
71043;BME280;58696;52.134;5.500;2023-03-05T05:50:39;102065.97;;;2.72;89.75
71043;BME280;58696;52.134;5.500;2023-03-05T05:53:07;102057.75;;;2.68;89.73
71043;BME280;58696;52.134;5.500;2023-03-05T05:55:33;102050.53;;;2.62;89.66
71043;BME280;58696;52.134;5.500;2023-03-05T05:57:59;102059.78;;;2.63;89.76
71043;BME280;58696;52.134;5.500;2023-03-05T06:00:27;102061.50;;;2.62;89.92
71043;BME280;58696;52.134;5.500;2023-03-05T06:02:56;102056.13;;;2.67;90.02
71043;BME280;58696;52.134;5.500;2023-03-05T06:05:23;102065.97;;;2.72;89.97
71043;BME280;58696;52.134;5.500;2023-03-05T06:07:50;102062.44;;;2.74;89.99
71043;BME280;58696;52.134;5.500;2023-03-05T06:10:19;102055.50;;;2.76;90.14
71043;BME280;58696;52.134;5.500;2023-03-05T06:12:47;102054.50;;;2.79;89.93
71043;BME280;58696;52.134;5.500;2023-03-05T06:15:17;102049.22;;;2.82;90.10
71043;BME280;58696;52.134;5.500;2023-03-05T06:17:48;102048.41;;;2.81;90.18
71043;BME280;58696;52.134;5.500;2023-03-05T06:20:17;102046.69;;;2.82;90.35
71043;BME280;58696;52.134;5.500;2023-03-05T06:22:47;102045.28;;;2.78;90.26
71043;BME280;58696;52.134;5.500;2023-03-05T06:25:13;102052.09;;;2.77;90.27
71043;BME280;58696;52.134;5.500;2023-03-05T06:27:39;102048.69;;;2.77;90.27
71043;BME280;58696;52.134;5.500;2023-03-05T06:30:06;102053.06;;;2.75;90.39
71043;BME280;58696;52.134;5.500;2023-03-05T06:32:36;102049.72;;;2.74;90.50
71043;BME280;58696;52.134;5.500;2023-03-05T06:35:03;102041.94;;;2.77;90.51
71043;BME280;58696;52.134;5.500;2023-03-05T06:37:32;102044.94;;;2.82;90.54
71043;BME280;58696;52.134;5.500;2023-03-05T06:39:58;102038.25;;;2.81;90.54
71043;BME280;58696;52.134;5.500;2023-03-05T06:42:25;102044.34;;;2.79;90.44
71043;BME280;58696;52.134;5.500;2023-03-05T06:44:52;102051.16;;;2.78;90.58
71043;BME280;58696;52.134;5.500;2023-03-05T06:47:27;102049.94;;;2.84;90.59
71043;BME280;58696;52.134;5.500;2023-03-05T06:49:56;102050.66;;;2.86;90.84
71043;BME280;58696;52.134;5.500;2023-03-05T06:52:25;102042.84;;;2.89;90.68
71043;BME280;58696;52.134;5.500;2023-03-05T06:54:51;102049.13;;;2.96;90.85
71043;BME280;58696;52.134;5.500;2023-03-05T06:57:21;102049.00;;;2.98;90.81
71043;BME280;58696;52.134;5.500;2023-03-05T06:59:47;102054.91;;;2.98;90.72
71043;BME280;58696;52.134;5.500;2023-03-05T07:02:16;102046.88;;;3.04;90.70
71043;BME280;58696;52.134;5.500;2023-03-05T07:04:44;102044.03;;;3.09;90.73
71043;BME280;58696;52.134;5.500;2023-03-05T07:07:11;102042.91;;;3.13;90.62
71043;BME280;58696;52.134;5.500;2023-03-05T07:09:38;102050.22;;;3.17;90.58
71043;BME280;58696;52.134;5.500;2023-03-05T07:12:08;102036.59;;;3.19;90.21
71043;BME280;58696;52.134;5.500;2023-03-05T07:14:36;102044.63;;;3.25;90.21
71043;BME280;58696;52.134;5.500;2023-03-05T07:17:05;102042.38;;;3.33;90.26
71043;BME280;58696;52.134;5.500;2023-03-05T07:19:33;102042.75;;;3.40;90.06
71043;BME280;58696;52.134;5.500;2023-03-05T07:21:59;102033.59;;;3.50;89.97
71043;BME280;58696;52.134;5.500;2023-03-05T07:24:26;102037.31;;;3.57;89.91
71043;BME280;58696;52.134;5.500;2023-03-05T07:26:55;102045.81;;;3.69;89.84
71043;BME280;58696;52.134;5.500;2023-03-05T07:29:23;102041.34;;;3.73;89.59
71043;BME280;58696;52.134;5.500;2023-03-05T07:31:49;102036.25;;;3.73;89.68
71043;BME280;58696;52.134;5.500;2023-03-05T07:34:15;102038.91;;;3.71;89.57
71043;BME280;58696;52.134;5.500;2023-03-05T07:36:42;102039.44;;;3.63;89.44
71043;BME280;58696;52.134;5.500;2023-03-05T07:39:09;102043.81;;;3.61;89.66
71043;BME280;58696;52.134;5.500;2023-03-05T07:41:39;102038.13;;;3.58;89.64
71043;BME280;58696;52.134;5.500;2023-03-05T07:44:08;102037.22;;;3.59;89.87
71043;BME280;58696;52.134;5.500;2023-03-05T07:46:35;102039.53;;;3.62;89.67
71043;BME280;58696;52.134;5.500;2023-03-05T07:49:02;102036.09;;;3.63;89.86
71043;BME280;58696;52.134;5.500;2023-03-05T07:51:29;102038.09;;;3.71;89.91
71043;BME280;58696;52.134;5.500;2023-03-05T07:53:58;102041.13;;;3.76;89.53
71043;BME280;58696;52.134;5.500;2023-03-05T07:56:28;102035.00;;;3.78;89.49
71043;BME280;58696;52.134;5.500;2023-03-05T07:59:01;102032.16;;;3.83;89.43
71043;BME280;58696;52.134;5.500;2023-03-05T08:01:28;102035.50;;;3.83;89.43
71043;BME280;58696;52.134;5.500;2023-03-05T08:03:56;102035.50;;;3.83;89.54
71043;BME280;58696;52.134;5.500;2023-03-05T08:06:24;102027.19;;;3.81;89.50
71043;BME280;58696;52.134;5.500;2023-03-05T08:08:50;102022.16;;;3.92;89.67
71043;BME280;58696;52.134;5.500;2023-03-05T08:11:17;102021.25;;;4.05;89.47
71043;BME280;58696;52.134;5.500;2023-03-05T08:13:43;102019.09;;;4.11;89.32
71043;BME280;58696;52.134;5.500;2023-03-05T08:16:16;102014.59;;;4.15;89.11
71043;BME280;58696;52.134;5.500;2023-03-05T08:18:45;102024.97;;;4.12;89.07
71043;BME280;58696;52.134;5.500;2023-03-05T08:21:17;102018.84;;;4.03;88.92
71043;BME280;58696;52.134;5.500;2023-03-05T08:23:44;102020.78;;;4.00;88.81
71043;BME280;58696;52.134;5.500;2023-03-05T08:26:12;102013.03;;;4.01;88.89
71043;BME280;58696;52.134;5.500;2023-03-05T08:28:43;102009.47;;;4.04;88.72
71043;BME280;58696;52.134;5.500;2023-03-05T08:31:10;102011.78;;;4.07;88.47
71043;BME280;58696;52.134;5.500;2023-03-05T08:33:42;102011.34;;;4.13;88.23
71043;BME280;58696;52.134;5.500;2023-03-05T08:36:09;102010.50;;;4.36;88.32
71043;BME280;58696;52.134;5.500;2023-03-05T08:38:36;102003.56;;;4.61;87.94
71043;BME280;58696;52.134;5.500;2023-03-05T08:41:02;101999.78;;;4.78;87.27
71043;BME280;58696;52.134;5.500;2023-03-05T08:43:31;102004.44;;;4.95;86.76
71043;BME280;58696;52.134;5.500;2023-03-05T08:45:58;101992.50;;;5.07;86.52
71043;BME280;58696;52.134;5.500;2023-03-05T08:48:25;101992.59;;;5.27;86.08
71043;BME280;58696;52.134;5.500;2023-03-05T08:50:52;101988.63;;;5.35;85.52
71043;BME280;58696;52.134;5.500;2023-03-05T08:53:19;101986.22;;;5.22;85.27
71043;BME280;58696;52.134;5.500;2023-03-05T08:55:52;101986.66;;;5.27;85.20
71043;BME280;58696;52.134;5.500;2023-03-05T08:58:19;101975.78;;;5.14;84.98
71043;BME280;58696;52.134;5.500;2023-03-05T09:00:46;101974.41;;;5.10;84.95
71043;BME280;58696;52.134;5.500;2023-03-05T09:03:13;101973.03;;;5.06;84.98
71043;BME280;58696;52.134;5.500;2023-03-05T09:05:42;101972.81;;;4.97;84.65
71043;BME280;58696;52.134;5.500;2023-03-05T09:08:08;101977.91;;;4.97;84.82
71043;BME280;58696;52.134;5.500;2023-03-05T09:10:36;101975.00;;;5.02;84.59
71043;BME280;58696;52.134;5.500;2023-03-05T09:13:02;101984.84;;;5.07;84.23
71043;BME280;58696;52.134;5.500;2023-03-05T09:15:30;101971.97;;;5.08;84.05
71043;BME280;58696;52.134;5.500;2023-03-05T09:17:59;101970.13;;;5.10;83.94
71043;BME280;58696;52.134;5.500;2023-03-05T09:20:28;101971.50;;;5.14;83.53
71043;BME280;58696;52.134;5.500;2023-03-05T09:22:56;101969.75;;;5.15;83.60
71043;BME280;58696;52.134;5.500;2023-03-05T09:25:22;101967.53;;;5.21;83.64
71043;BME280;58696;52.134;5.500;2023-03-05T09:27:51;101963.84;;;5.25;83.59
71043;BME280;58696;52.134;5.500;2023-03-05T09:30:19;101965.34;;;5.28;83.39
71043;BME280;58696;52.134;5.500;2023-03-05T09:32:46;101969.25;;;5.32;83.19
71043;BME280;58696;52.134;5.500;2023-03-05T09:35:13;101973.00;;;5.28;83.15
71043;BME280;58696;52.134;5.500;2023-03-05T09:37:42;101964.31;;;5.19;83.31
71043;BME280;58696;52.134;5.500;2023-03-05T09:40:12;101961.19;;;5.16;82.99
71043;BME280;58696;52.134;5.500;2023-03-05T09:45:27;101955.72;;;5.20;82.83
71043;BME280;58696;52.134;5.500;2023-03-05T09:50:45;101964.09;;;5.22;82.72
71043;BME280;58696;52.134;5.500;2023-03-05T09:55:59;101961.63;;;5.21;81.85
71043;BME280;58696;52.134;5.500;2023-03-05T10:01:08;101953.56;;;5.48;81.88
71043;BME280;58696;52.134;5.500;2023-03-05T10:06:26;101936.25;;;5.95;81.70
71043;BME280;58696;52.134;5.500;2023-03-05T10:09:01;101943.09;;;5.94;80.77
71043;BME280;58696;52.134;5.500;2023-03-05T10:11:37;101945.78;;;5.81;80.28
71043;BME280;58696;52.134;5.500;2023-03-05T10:14:27;101937.09;;;5.84;80.43
71043;BME280;58696;52.134;5.500;2023-03-05T10:17:23;101938.53;;;5.98;80.49
71043;BME280;58696;52.134;5.500;2023-03-05T10:22:32;101926.28;;;5.92;80.32
71043;BME280;58696;52.134;5.500;2023-03-05T10:27:51;101925.16;;;5.85;80.20
71043;BME280;58696;52.134;5.500;2023-03-05T10:41:09;101910.16;;;6.12;77.60
71043;BME280;58696;52.134;5.500;2023-03-05T10:43:41;101907.88;;;6.40;77.61
71043;BME280;58696;52.134;5.500;2023-03-05T10:46:14;101905.25;;;6.51;76.96
71043;BME280;58696;52.134;5.500;2023-03-05T10:48:44;101904.00;;;6.45;75.91
71043;BME280;58696;52.134;5.500;2023-03-05T10:56:24;101897.13;;;6.76;74.98
71043;BME280;58696;52.134;5.500;2023-03-05T10:58:51;101886.16;;;7.05;74.64
71043;BME280;58696;52.134;5.500;2023-03-05T11:11:43;101875.09;;;6.95;72.61
71043;BME280;58696;52.134;5.500;2023-03-05T11:14:21;101862.59;;;7.11;71.55
71043;BME280;58696;52.134;5.500;2023-03-05T11:16:48;101868.66;;;7.39;70.82
71043;BME280;58696;52.134;5.500;2023-03-05T11:21:43;101861.53;;;7.52;69.74
71043;BME280;58696;52.134;5.500;2023-03-05T11:24:14;101853.06;;;7.32;68.33
71043;BME280;58696;52.134;5.500;2023-03-05T11:29:20;101840.41;;;7.50;69.31
71043;BME280;58696;52.134;5.500;2023-03-05T11:31:47;101836.59;;;7.54;69.12
71043;BME280;58696;52.134;5.500;2023-03-05T11:39:22;101827.47;;;7.23;68.01
71043;BME280;58696;52.134;5.500;2023-03-05T11:41:56;101835.84;;;7.25;69.31
71043;BME280;58696;52.134;5.500;2023-03-05T11:47:03;101826.03;;;7.20;66.70
71043;BME280;58696;52.134;5.500;2023-03-05T11:49:42;101818.59;;;7.27;67.43
71043;BME280;58696;52.134;5.500;2023-03-05T11:52:14;101815.09;;;7.37;67.02
71043;BME280;58696;52.134;5.500;2023-03-05T11:55:03;101823.56;;;7.38;66.10
71043;BME280;58696;52.134;5.500;2023-03-05T11:57:34;101807.84;;;7.33;65.47
71043;BME280;58696;52.134;5.500;2023-03-05T12:00:05;101806.38;;;7.30;65.18
71043;BME280;58696;52.134;5.500;2023-03-05T12:02:37;101802.59;;;7.25;64.03
71043;BME280;58696;52.134;5.500;2023-03-05T12:05:12;101797.19;;;7.37;64.16
71043;BME280;58696;52.134;5.500;2023-03-05T12:07:40;101793.88;;;7.18;63.38
71043;BME280;58696;52.134;5.500;2023-03-05T12:10:18;101795.75;;;7.16;63.57
71043;BME280;58696;52.134;5.500;2023-03-05T12:15:28;101779.06;;;7.21;65.32
71043;BME280;58696;52.134;5.500;2023-03-05T12:22:53;101770.19;;;7.16;65.56
71043;BME280;58696;52.134;5.500;2023-03-05T12:27:53;101755.38;;;7.29;63.63
71043;BME280;58696;52.134;5.500;2023-03-05T12:33:02;101753.97;;;7.44;63.20
71043;BME280;58696;52.134;5.500;2023-03-05T12:35:36;101740.03;;;7.66;62.44
71043;BME280;58696;52.134;5.500;2023-03-05T12:38:16;101738.53;;;7.36;61.56
71043;BME280;58696;52.134;5.500;2023-03-05T12:40:52;101744.31;;;7.38;62.05
71043;BME280;58696;52.134;5.500;2023-03-05T12:43:38;101723.78;;;7.57;62.40
71043;BME280;58696;52.134;5.500;2023-03-05T12:46:21;101725.75;;;7.73;62.17
71043;BME280;58696;52.134;5.500;2023-03-05T12:48:49;101723.16;;;7.46;60.65
71043;BME280;58696;52.134;5.500;2023-03-05T12:51:26;101716.13;;;7.57;61.29
71043;BME280;58696;52.134;5.500;2023-03-05T12:53:54;101706.63;;;7.40;60.82
71043;BME280;58696;52.134;5.500;2023-03-05T12:56:21;101713.44;;;7.49;62.39
71043;BME280;58696;52.134;5.500;2023-03-05T12:58:52;101706.06;;;7.46;59.77
71043;BME280;58696;52.134;5.500;2023-03-05T13:01:26;101706.91;;;7.27;59.89
71043;BME280;58696;52.134;5.500;2023-03-05T13:04:01;101692.53;;;7.26;60.81
71043;BME280;58696;52.134;5.500;2023-03-05T13:06:45;101693.06;;;7.30;61.01
71043;BME280;58696;52.134;5.500;2023-03-05T13:09:22;101689.16;;;7.35;61.05
71043;BME280;58696;52.134;5.500;2023-03-05T13:11:55;101682.66;;;7.41;61.20
71043;BME280;58696;52.134;5.500;2023-03-05T13:16:57;101677.31;;;7.34;60.47
71043;BME280;58696;52.134;5.500;2023-03-05T13:19:27;101674.81;;;7.52;61.27
71043;BME280;58696;52.134;5.500;2023-03-05T13:21:59;101672.78;;;7.56;61.53
71043;BME280;58696;52.134;5.500;2023-03-05T13:24:30;101662.41;;;7.57;61.88
71043;BME280;58696;52.134;5.500;2023-03-05T13:26:57;101661.22;;;7.52;60.94
71043;BME280;58696;52.134;5.500;2023-03-05T13:29:32;101660.06;;;7.36;60.39
71043;BME280;58696;52.134;5.500;2023-03-05T13:32:03;101657.13;;;7.31;60.11
71043;BME280;58696;52.134;5.500;2023-03-05T13:34:44;101649.63;;;7.20;59.37
71043;BME280;58696;52.134;5.500;2023-03-05T13:37:17;101645.06;;;7.14;59.10
71043;BME280;58696;52.134;5.500;2023-03-05T13:39:48;101645.22;;;7.13;59.96
71043;BME280;58696;52.134;5.500;2023-03-05T13:42:22;101640.75;;;7.15;60.74
71043;BME280;58696;52.134;5.500;2023-03-05T13:47:27;101635.38;;;7.18;61.24
71043;BME280;58696;52.134;5.500;2023-03-05T13:49:57;101629.31;;;7.19;61.61
71043;BME280;58696;52.134;5.500;2023-03-05T13:52:31;101624.31;;;7.17;61.55
71043;BME280;58696;52.134;5.500;2023-03-05T13:54:58;101631.25;;;7.07;61.63
71043;BME280;58696;52.134;5.500;2023-03-05T14:00:04;101627.91;;;6.97;62.00
71043;BME280;58696;52.134;5.500;2023-03-05T14:02:31;101613.78;;;7.02;62.10
71043;BME280;58696;52.134;5.500;2023-03-05T14:04:58;101614.19;;;6.98;62.22
71043;BME280;58696;52.134;5.500;2023-03-05T14:07:32;101605.84;;;6.96;62.42
71043;BME280;58696;52.134;5.500;2023-03-05T14:10:01;101611.09;;;6.94;62.84
71043;BME280;58696;52.134;5.500;2023-03-05T14:12:32;101608.84;;;6.81;62.22
71043;BME280;58696;52.134;5.500;2023-03-05T14:14:59;101603.19;;;6.78;62.62
71043;BME280;58696;52.134;5.500;2023-03-05T14:17:35;101595.94;;;6.83;63.17
71043;BME280;58696;52.134;5.500;2023-03-05T14:20:16;101589.78;;;6.76;62.98
71043;BME280;58696;52.134;5.500;2023-03-05T14:22:45;101588.16;;;6.75;63.00
71043;BME280;58696;52.134;5.500;2023-03-05T14:25:28;101587.06;;;6.77;63.01
71043;BME280;58696;52.134;5.500;2023-03-05T14:28:06;101586.81;;;6.80;63.10
71043;BME280;58696;52.134;5.500;2023-03-05T14:30:52;101577.41;;;6.71;62.83
71043;BME280;58696;52.134;5.500;2023-03-05T14:33:23;101579.97;;;6.71;63.13